createdAt,value
2023-04-18T00:04:52.142Z,99.5
2023-04-18T00:09:58.706Z,99.5
2023-04-18T00:15:05.346Z,99.5
2023-04-18T00:20:11.901Z,99.5
2023-04-18T00:25:18.483Z,99.5
2023-04-18T00:30:25.063Z,99.5
2023-04-18T00:35:31.664Z,99.5
2023-04-18T00:45:44.766Z,99.5
2023-04-18T00:50:51.341Z,99.5
2023-04-18T00:55:57.917Z,99.5
2023-04-18T01:01:04.495Z,99.5
2023-04-18T01:06:10.321Z,99.5
2023-04-18T01:16:23.460Z,99.5
2023-04-18T01:21:29.353Z,99.5
2023-04-18T01:26:35.923Z,99.5
2023-04-18T01:31:41.766Z,99.5
2023-04-18T01:36:48.334Z,99.5
2023-04-18T01:41:54.925Z,99.5
2023-04-18T01:47:01.486Z,99.5
2023-04-18T01:52:08.046Z,99.5
2023-04-18T01:57:14.629Z,99.5
2023-04-18T02:02:21.179Z,99.5
2023-04-18T02:07:27.753Z,99.5
2023-04-18T02:12:34.325Z,99.5
2023-04-18T02:17:40.216Z,99.5
2023-04-18T02:22:46.071Z,99.5
2023-04-18T02:27:52.631Z,99.5
2023-04-18T02:32:59.218Z,99.5
2023-04-18T02:38:05.800Z,99.5
2023-04-18T02:43:12.348Z,99.5
2023-04-18T02:48:18.925Z,99.5
2023-04-18T02:53:25.491Z,99.5
2023-04-18T02:58:32.070Z,99.5
2023-04-18T03:03:38.639Z,99.5
2023-04-18T03:08:45.220Z,99.5
2023-04-18T03:13:51.096Z,99.5
2023-04-18T03:18:56.936Z,99.5
2023-04-18T03:24:03.516Z,99.5
2023-04-18T03:29:10.078Z,99.5
2023-04-18T03:34:16.650Z,99.5
2023-04-18T03:39:23.232Z,99.5
2023-04-18T03:44:29.805Z,99.5
2023-04-18T03:49:36.360Z,99.5
2023-04-18T03:54:42.951Z,99.5
2023-04-18T03:59:49.531Z,99.5
2023-04-18T04:04:56.086Z,99.5
2023-04-18T04:10:02.665Z,99.5
2023-04-18T04:15:09.231Z,99.5
2023-04-18T04:20:15.816Z,99.5
2023-04-18T04:25:22.373Z,99.5
2023-04-18T04:30:28.215Z,99.5
2023-04-18T04:35:34.804Z,99.5
2023-04-18T04:40:41.381Z,99.5
2023-04-18T04:45:47.919Z,99.5
2023-04-18T04:50:54.512Z,99.5
2023-04-18T04:56:01.114Z,99.5
2023-04-18T05:01:07.643Z,99.5
2023-04-18T05:06:14.229Z,99.5
2023-04-18T05:11:20.810Z,99.5
2023-04-18T05:16:27.359Z,99.5
2023-04-18T05:26:40.498Z,99.5
2023-04-18T05:31:47.082Z,99.5
2023-04-18T05:36:53.662Z,99.5
2023-04-18T05:41:59.500Z,99.5
2023-04-18T05:47:06.076Z,99.5
2023-04-18T05:52:12.645Z,99.5
2023-04-18T05:57:19.247Z,99.5
2023-04-18T06:02:25.782Z,99.5
2023-04-18T06:07:32.359Z,99
2023-04-18T06:12:38.922Z,98
2023-04-18T06:17:45.511Z,97
2023-04-18T06:22:52.076Z,96.5
2023-04-18T06:27:58.641Z,94.5
2023-04-18T06:33:05.207Z,91
2023-04-18T06:38:11.780Z,89
2023-04-18T06:43:18.344Z,87
2023-04-18T06:48:24.191Z,85.5
2023-04-18T06:58:37.325Z,84
2023-04-18T07:08:50.484Z,80.5
2023-04-18T07:29:16.101Z,77
2023-04-18T07:34:21.973Z,75.5
2023-04-18T07:44:34.358Z,74.5
2023-04-18T07:54:46.805Z,75.5
2023-04-18T07:59:52.772Z,77
2023-04-18T08:10:05.812Z,79.5
2023-04-18T08:20:18.888Z,80
2023-04-18T08:25:25.445Z,80.5
2023-04-18T08:35:38.576Z,72.5
2023-04-18T08:40:45.141Z,70.5
2023-04-18T08:45:51.774Z,68
2023-04-18T08:56:04.838Z,66
2023-04-18T09:01:11.457Z,68.5
2023-04-18T09:06:17.288Z,73
2023-04-18T09:16:29.692Z,77
2023-04-18T09:31:49.388Z,66.5
2023-04-18T09:36:55.972Z,66.5
2023-04-18T09:42:02.526Z,70
2023-04-18T09:47:09.103Z,72
2023-04-18T09:52:15.676Z,72.5
2023-04-18T10:02:28.800Z,77
2023-04-18T10:07:35.376Z,77
2023-04-18T10:17:48.580Z,79.5
2023-04-18T10:22:55.076Z,80
2023-04-18T10:28:01.663Z,80.5
2023-04-18T10:33:07.471Z,80
2023-04-18T10:38:14.085Z,80.5
2023-04-18T10:43:20.711Z,81
2023-04-18T10:48:27.175Z,79.5
2023-04-18T10:53:33.769Z,79
2023-04-18T10:58:40.308Z,78
2023-04-18T11:03:46.965Z,77
2023-04-18T11:14:00.132Z,78
2023-04-18T11:19:06.582Z,79.5
2023-04-18T11:24:13.147Z,77.5
2023-04-18T11:34:26.271Z,76.5
2023-04-18T11:39:32.108Z,74
2023-04-18T11:44:38.667Z,74
2023-04-18T11:49:45.250Z,75.5
2023-04-18T11:59:58.382Z,75
2023-04-18T12:05:04.945Z,75
2023-04-18T12:10:11.498Z,74
2023-04-18T12:20:24.673Z,74.5
2023-04-18T12:25:31.221Z,76
2023-04-18T12:35:44.370Z,72.5
2023-04-18T12:51:04.117Z,73
2023-04-18T12:56:09.928Z,74
2023-04-18T13:06:23.060Z,74
2023-04-18T13:11:29.597Z,76
2023-04-18T13:21:42.720Z,74.5
2023-04-18T13:26:49.294Z,74
2023-04-18T13:31:55.867Z,74.5
2023-04-18T13:47:15.575Z,70
2023-04-18T13:52:22.148Z,67.5
2023-04-18T13:57:28.714Z,70
2023-04-18T14:02:34.540Z,75
2023-04-18T14:07:41.115Z,76
2023-04-18T14:23:00.805Z,77.5
2023-04-18T14:28:07.382Z,76.5
2023-04-18T14:33:13.977Z,77
2023-04-18T14:38:20.729Z,78
2023-04-18T14:43:27.165Z,79.5
2023-04-18T14:48:33.826Z,79.5
2023-04-18T14:53:40.326Z,81
2023-04-18T14:58:46.798Z,80.5
2023-04-18T15:03:53.330Z,80.5
2023-04-18T15:08:59.903Z,80
2023-04-18T15:14:05.858Z,80.5
2023-04-18T15:24:18.888Z,80.5
2023-04-18T15:29:25.461Z,81
2023-04-18T15:34:32.015Z,81.5
2023-04-18T15:39:38.639Z,82
2023-04-18T15:44:45.172Z,81.5
2023-04-18T15:54:58.299Z,82
2023-04-18T16:00:04.869Z,83
2023-04-18T16:05:11.442Z,82.5
2023-04-18T16:10:18.003Z,82.5
2023-04-18T16:15:24.574Z,83
2023-04-18T16:20:31.143Z,83.5
2023-04-18T16:25:37.716Z,83
2023-04-18T16:30:43.572Z,84
2023-04-18T16:35:50.108Z,84.5
2023-04-18T16:40:56.685Z,85
2023-04-18T16:46:03.301Z,85
2023-04-18T16:51:09.863Z,84.5
2023-04-18T16:56:16.432Z,84.5
2023-04-18T17:01:23.086Z,85
2023-04-18T17:06:29.606Z,85
2023-04-18T17:11:36.123Z,85.5
2023-04-18T17:16:42.719Z,86
2023-04-18T17:21:49.253Z,86
2023-04-18T17:26:55.149Z,85.5
2023-04-18T17:32:00.994Z,86
2023-04-18T17:37:07.537Z,86.5
2023-04-18T17:42:14.110Z,86
2023-04-18T17:47:20.791Z,85.5
2023-04-18T17:52:27.255Z,82.5
2023-04-18T17:57:33.811Z,80.5
2023-04-18T18:07:46.955Z,77
2023-04-18T18:12:53.536Z,76.5
2023-04-18T18:18:00.083Z,76
2023-04-18T18:23:06.684Z,76
2023-04-18T18:28:13.251Z,76.5
2023-04-18T18:38:26.388Z,75.5
2023-04-18T18:43:32.940Z,74.5
2023-04-18T18:48:39.621Z,75
2023-04-18T18:53:45.380Z,76
2023-04-18T18:58:51.221Z,76
2023-04-18T19:14:10.950Z,77.5
2023-04-18T19:19:17.515Z,78.5
2023-04-18T19:24:24.092Z,79
2023-04-18T19:29:30.639Z,79
2023-04-18T19:34:37.218Z,80
2023-04-18T19:39:43.884Z,80
2023-04-18T19:44:50.407Z,79.5
2023-04-18T19:49:56.919Z,80
2023-04-18T19:55:03.487Z,79
2023-04-18T20:00:10.062Z,78.5
2023-04-18T20:05:15.986Z,78
2023-04-18T20:15:29.059Z,76
2023-04-18T20:25:42.188Z,73.5
2023-04-18T20:30:48.752Z,74
2023-04-18T20:35:55.340Z,74.5
2023-04-18T20:41:01.922Z,76
2023-04-18T20:46:08.501Z,76
2023-04-18T20:51:15.168Z,76
2023-04-18T20:56:21.638Z,75
2023-04-18T21:01:28.159Z,74
2023-04-18T21:06:34.779Z,74.5
2023-04-18T21:11:41.320Z,75
2023-04-18T21:32:06.894Z,77.5
2023-04-18T21:47:26.601Z,78.5
2023-04-18T21:57:39.768Z,79.5
2023-04-18T22:02:46.282Z,80
2023-04-18T22:07:52.873Z,81
2023-04-18T22:12:59.472Z,81.5
2023-04-18T22:18:06.067Z,82.5
2023-04-18T22:28:18.434Z,84.5
2023-04-18T22:33:25.005Z,85.5
2023-04-18T22:43:38.210Z,87.5
2023-04-18T22:48:44.706Z,87.5
2023-04-18T22:53:51.280Z,88
2023-04-18T22:58:57.853Z,88.5
2023-04-18T23:04:04.415Z,89
2023-04-18T23:09:10.995Z,89
2023-04-18T23:14:17.604Z,89.5
2023-04-18T23:19:24.156Z,90
2023-04-18T23:24:30.784Z,90
2023-04-18T23:29:36.570Z,90
2023-04-18T23:34:43.122Z,91
2023-04-18T23:44:56.257Z,89
2023-04-18T23:50:02.833Z,89.5
2023-04-18T23:55:09.410Z,90.5
